createdAt,value
2023-06-07T00:02:26.706Z,15.10
2023-06-07T00:08:20.152Z,15.15
2023-06-07T00:14:20.117Z,15.22
2023-06-07T00:20:08.162Z,15.27
2023-06-07T00:32:16.229Z,15.33
2023-06-07T00:38:16.999Z,15.35
2023-06-07T00:43:54.725Z,15.34
2023-06-07T00:49:58.749Z,15.39
2023-06-07T00:56:04.302Z,15.40
2023-06-07T01:01:54.744Z,15.37
2023-06-07T01:07:35.380Z,15.41
2023-06-07T01:13:39.884Z,15.43
2023-06-07T01:19:57.710Z,15.48
2023-06-07T01:26:15.842Z,15.50
2023-06-07T01:39:09.429Z,15.49
2023-06-07T01:51:03.255Z,15.48
2023-06-07T01:56:36.271Z,15.45
2023-06-07T02:02:13.274Z,15.45
2023-06-07T02:07:40.270Z,15.39
2023-06-07T02:13:06.307Z,15.40
2023-06-07T02:18:35.291Z,15.36
2023-06-07T02:24:00.415Z,15.33
2023-06-07T02:29:25.301Z,15.31
2023-06-07T02:34:53.292Z,15.31
2023-06-07T02:40:20.288Z,15.31
2023-06-07T02:45:45.289Z,15.29
2023-06-07T02:51:12.324Z,15.29
2023-06-07T02:56:40.439Z,15.29
2023-06-07T03:02:04.326Z,15.26
2023-06-07T03:07:33.310Z,15.26
2023-06-07T03:13:00.308Z,15.26
2023-06-07T03:18:27.322Z,15.25
2023-06-07T03:24:03.410Z,15.26
2023-06-07T03:29:28.323Z,15.23
2023-06-07T03:34:53.301Z,15.24
2023-06-07T03:40:22.336Z,15.21
2023-06-07T03:45:55.313Z,15.21
2023-06-07T03:51:20.438Z,15.20
2023-06-07T03:56:50.332Z,15.19
2023-06-07T04:02:16.377Z,15.17
2023-06-07T04:07:41.362Z,15.16
2023-06-07T04:13:09.335Z,15.18
2023-06-07T04:18:34.344Z,15.19
2023-06-07T04:24:05.577Z,15.21
2023-06-07T04:29:33.378Z,15.24
2023-06-07T04:34:59.344Z,15.26
2023-06-07T04:40:25.500Z,15.29
2023-06-07T04:45:54.475Z,15.28
2023-06-07T04:51:21.390Z,15.22
2023-06-07T04:56:46.348Z,15.23
2023-06-07T05:02:14.388Z,15.30
2023-06-07T05:07:40.399Z,15.36
2023-06-07T05:13:05.496Z,15.41
2023-06-07T05:18:33.389Z,15.43
2023-06-07T05:24:04.449Z,15.44
2023-06-07T05:29:29.398Z,15.42
2023-06-07T05:34:57.592Z,15.48
2023-06-07T05:40:25.450Z,15.56
2023-06-07T05:45:49.382Z,15.63
2023-06-07T05:51:18.391Z,15.75
2023-06-07T05:56:42.419Z,15.86
2023-06-07T06:02:07.434Z,16.01
2023-06-07T06:07:35.416Z,16.12
2023-06-07T06:13:00.445Z,16.13
2023-06-07T06:18:25.402Z,16.17
2023-06-07T06:23:54.325Z,16.24
2023-06-07T06:29:18.477Z,16.26
2023-06-07T06:34:43.454Z,16.35
2023-06-07T06:40:12.452Z,16.32
2023-06-07T06:45:37.472Z,16.25
2023-06-07T06:51:01.598Z,16.28
2023-06-07T06:56:30.538Z,16.38
2023-06-07T07:02:04.516Z,16.51
2023-06-07T07:07:30.525Z,16.64
2023-06-07T07:13:02.199Z,16.72
2023-06-07T07:18:27.451Z,16.81
2023-06-07T07:23:54.484Z,16.88
2023-06-07T07:29:22.479Z,16.88
2023-06-07T07:34:47.511Z,17.07
2023-06-07T07:40:13.593Z,17.19
2023-06-07T07:45:40.486Z,17.21
2023-06-07T07:51:07.499Z,17.21
2023-06-07T07:56:32.814Z,17.25
2023-06-07T08:02:00.474Z,17.30
2023-06-07T08:07:24.507Z,17.39
2023-06-07T08:12:49.508Z,17.47
2023-06-07T08:18:16.541Z,17.44
2023-06-07T08:23:41.581Z,17.52
2023-06-07T08:29:05.496Z,17.38
2023-06-07T08:34:35.493Z,17.42
2023-06-07T08:40:01.502Z,17.53
2023-06-07T08:45:26.587Z,17.51
2023-06-07T08:50:54.824Z,17.40
2023-06-07T08:56:20.518Z,17.21
2023-06-07T09:01:46.596Z,17.25
2023-06-07T09:07:18.281Z,17.34
2023-06-07T09:12:43.510Z,17.39
2023-06-07T09:18:10.667Z,17.45
2023-06-07T09:23:38.625Z,17.51
2023-06-07T09:29:09.573Z,17.59
2023-06-07T09:34:38.522Z,17.80
2023-06-07T09:40:06.782Z,17.93
2023-06-07T09:45:33.558Z,18.06
2023-06-07T09:51:11.575Z,18.24
2023-06-07T09:56:39.594Z,18.46
2023-06-07T10:02:04.590Z,18.65
2023-06-07T10:07:31.565Z,18.83
2023-06-07T10:12:59.559Z,19.04
2023-06-07T10:18:29.658Z,19.24
2023-06-07T10:24:00.686Z,19.53
2023-06-07T10:29:39.599Z,19.77
2023-06-07T10:35:05.602Z,19.97
2023-06-07T10:40:33.618Z,20.17
2023-06-07T10:46:00.642Z,20.38
2023-06-07T10:51:27.848Z,20.62
2023-06-07T10:56:54.599Z,20.91
2023-06-07T11:02:34.780Z,20.97
2023-06-07T11:07:59.793Z,21.28
2023-06-07T11:13:24.703Z,21.17
2023-06-07T11:19:15.674Z,21.11
2023-06-07T11:24:43.940Z,21.08
2023-06-07T11:30:10.665Z,20.84
2023-06-07T11:35:40.814Z,20.98
2023-06-07T11:41:05.632Z,21.21
2023-06-07T11:46:30.688Z,21.51
2023-06-07T11:51:58.668Z,21.83
2023-06-07T11:57:23.650Z,22.12
2023-06-07T12:02:49.744Z,22.05
2023-06-07T12:08:21.921Z,21.67
2023-06-07T12:13:52.731Z,22.01
2023-06-07T12:19:18.658Z,21.74
2023-06-07T12:24:48.668Z,21.72
2023-06-07T12:30:15.693Z,21.46
2023-06-07T12:35:39.703Z,21.96
2023-06-07T12:41:07.712Z,22.22
2023-06-07T12:46:31.960Z,22.54
2023-06-07T12:51:56.701Z,22.74
2023-06-07T12:57:25.751Z,22.83
2023-06-07T13:02:51.819Z,23.21
2023-06-07T13:08:15.815Z,23.32
2023-06-07T13:13:44.090Z,23.51
2023-06-07T13:19:08.689Z,23.45
2023-06-07T13:24:33.729Z,23.60
2023-06-07T13:30:02.853Z,23.67
2023-06-07T13:35:30.114Z,23.69
2023-06-07T13:40:57.663Z,23.67
2023-06-07T13:46:26.791Z,23.68
2023-06-07T13:51:51.748Z,23.73
2023-06-07T13:57:17.779Z,23.83
2023-06-07T14:02:44.928Z,23.79
2023-06-07T14:08:09.738Z,23.91
2023-06-07T14:13:35.012Z,23.97
2023-06-07T14:19:02.762Z,24.25
2023-06-07T14:24:33.761Z,24.43
2023-06-07T14:29:58.771Z,24.64
2023-06-07T14:35:26.957Z,24.91
2023-06-07T14:40:51.896Z,25.19
2023-06-07T14:46:16.798Z,25.32
2023-06-07T14:51:44.758Z,25.70
2023-06-07T14:57:08.785Z,25.85
2023-06-07T15:02:33.975Z,26.20
2023-06-07T15:08:00.775Z,26.36
2023-06-07T15:13:26.919Z,26.49
2023-06-07T15:18:50.792Z,26.42
2023-06-07T15:24:19.075Z,26.52
2023-06-07T15:29:49.856Z,26.49
2023-06-07T15:35:15.936Z,26.27
2023-06-07T15:40:42.857Z,26.48
2023-06-07T15:46:08.024Z,26.70
2023-06-07T15:51:31.801Z,26.85
2023-06-07T15:56:59.847Z,26.69
2023-06-07T16:02:25.878Z,26.85
2023-06-07T16:07:50.827Z,26.44
2023-06-07T16:13:17.833Z,26.39
2023-06-07T16:18:43.855Z,26.33
2023-06-07T16:24:10.977Z,26.10
2023-06-07T16:29:45.855Z,25.66
2023-06-07T16:35:10.915Z,25.60
2023-06-07T16:40:35.828Z,25.47
2023-06-07T16:46:03.896Z,25.17
2023-06-07T16:51:27.882Z,24.86
2023-06-07T16:56:52.871Z,24.62
2023-06-07T17:02:19.897Z,24.39
2023-06-07T17:07:44.867Z,24.28
2023-06-07T17:13:08.910Z,24.22
2023-06-07T17:18:36.981Z,23.93
2023-06-07T17:24:01.254Z,23.52
2023-06-07T17:29:31.907Z,23.17
2023-06-07T17:34:59.921Z,22.93
2023-06-07T17:40:25.892Z,22.72
2023-06-07T17:45:50.935Z,22.57
2023-06-07T17:51:17.903Z,22.37
2023-06-07T17:56:42.901Z,22.18
2023-06-07T18:02:10.903Z,22.10
2023-06-07T18:07:38.922Z,21.96
2023-06-07T18:13:02.917Z,21.84
2023-06-07T18:18:27.964Z,21.71
2023-06-07T18:23:56.065Z,21.55
2023-06-07T18:29:22.954Z,21.44
2023-06-07T18:34:46.942Z,21.24
2023-06-07T18:40:15.947Z,21.08
2023-06-07T18:45:46.066Z,20.91
2023-06-07T18:56:35.962Z,20.56
2023-06-07T19:02:03.057Z,20.39
2023-06-07T19:07:27.093Z,20.25
2023-06-07T19:12:55.107Z,20.17
2023-06-07T19:18:27.095Z,20.06
2023-06-07T19:23:53.120Z,19.94
2023-06-07T19:29:22.420Z,19.82
2023-06-07T19:34:46.980Z,19.71
2023-06-07T19:40:10.993Z,19.62
2023-06-07T19:45:38.967Z,19.55
2023-06-07T19:51:03.990Z,19.45
2023-06-07T19:56:30.000Z,19.33
2023-06-07T20:01:57.112Z,19.19
2023-06-07T20:07:23.006Z,19.05
2023-06-07T20:12:47.034Z,18.99
2023-06-07T20:18:14.973Z,18.89
2023-06-07T20:23:39.088Z,18.79
2023-06-07T20:29:05.025Z,18.66
2023-06-07T20:34:32.061Z,18.55
2023-06-07T20:39:57.029Z,18.40
2023-06-07T20:45:35.035Z,18.33
2023-06-07T20:51:06.038Z,18.25
2023-06-07T20:56:30.025Z,18.22
2023-06-07T21:01:59.138Z,18.13
2023-06-07T21:07:26.083Z,18.04
2023-06-07T21:12:51.038Z,17.97
2023-06-07T21:18:22.087Z,17.91
2023-06-07T21:23:50.073Z,17.85
2023-06-07T21:29:14.056Z,17.88
2023-06-07T21:34:40.093Z,17.87
2023-06-07T21:40:07.392Z,17.89
2023-06-07T21:45:34.099Z,17.88
2023-06-07T21:50:59.061Z,17.86
2023-06-07T21:56:27.053Z,17.82
2023-06-07T22:01:51.131Z,17.71
2023-06-07T22:07:16.061Z,17.63
2023-06-07T22:12:44.070Z,17.60
2023-06-07T22:18:16.115Z,17.51
2023-06-07T22:23:41.123Z,17.50
2023-06-07T22:29:09.110Z,17.44
2023-06-07T22:34:36.089Z,17.38
2023-06-07T22:39:54.081Z,17.34
2023-06-07T22:45:24.105Z,17.29
2023-06-07T22:50:59.100Z,17.22
2023-06-07T22:56:23.116Z,17.19
2023-06-07T23:01:54.155Z,17.18
2023-06-07T23:07:18.102Z,17.15
2023-06-07T23:12:45.125Z,17.13
2023-06-07T23:18:12.643Z,17.05
2023-06-07T23:23:45.144Z,17.02
2023-06-07T23:29:10.155Z,17.02
2023-06-07T23:34:38.144Z,17.02
2023-06-07T23:40:03.683Z,17.05
2023-06-07T23:45:32.151Z,17.06
2023-06-07T23:51:00.149Z,17.04
2023-06-07T23:56:24.145Z,17.01
